sensor_id;sensor_type;location;lat;lon;timestamp;P1;durP1;ratioP1;P2;durP2;ratioP2
61739;SDS011;47645;45.288;12.038;2023-06-14T00:04:06;9.8;;;6.3;;
61739;SDS011;47645;45.288;12.038;2023-06-14T00:14:06;7.5;;;5.5;;
61739;SDS011;47645;45.288;12.038;2023-06-14T00:24:08;7.9;;;5.4;;
61739;SDS011;47645;45.288;12.038;2023-06-14T00:34:09;5.4;;;4.0;;
61739;SDS011;47645;45.288;12.038;2023-06-14T00:44:10;8.0;;;6.0;;
61739;SDS011;47645;45.288;12.038;2023-06-14T00:54:11;4.9;;;3.8;;
61739;SDS011;47645;45.288;12.038;2023-06-14T01:04:13;6.5;;;4.5;;
61739;SDS011;47645;45.288;12.038;2023-06-14T01:14:14;6.8;;;5.3;;
61739;SDS011;47645;45.288;12.038;2023-06-14T01:24:15;9.3;;;7.2;;
61739;SDS011;47645;45.288;12.038;2023-06-14T01:34:16;8.9;;;6.5;;
61739;SDS011;47645;45.288;12.038;2023-06-14T01:44:18;10.5;;;6.8;;
61739;SDS011;47645;45.288;12.038;2023-06-14T01:54:19;7.7;;;6.9;;
61739;SDS011;47645;45.288;12.038;2023-06-14T02:04:20;7.8;;;5.8;;
61739;SDS011;47645;45.288;12.038;2023-06-14T02:14:21;10.8;;;5.9;;
61739;SDS011;47645;45.288;12.038;2023-06-14T02:24:23;10.0;;;6.5;;
61739;SDS011;47645;45.288;12.038;2023-06-14T02:34:24;9.1;;;5.9;;
61739;SDS011;47645;45.288;12.038;2023-06-14T02:44:26;7.5;;;5.7;;
61739;SDS011;47645;45.288;12.038;2023-06-14T02:54:26;7.0;;;5.1;;
61739;SDS011;47645;45.288;12.038;2023-06-14T03:04:29;7.7;;;5.8;;
61739;SDS011;47645;45.288;12.038;2023-06-14T03:14:29;6.8;;;5.4;;
61739;SDS011;47645;45.288;12.038;2023-06-14T03:24:32;6.4;;;5.3;;
61739;SDS011;47645;45.288;12.038;2023-06-14T03:34:31;9.1;;;6.2;;
61739;SDS011;47645;45.288;12.038;2023-06-14T03:44:32;9.2;;;5.9;;
61739;SDS011;47645;45.288;12.038;2023-06-14T03:54:34;7.3;;;5.7;;
61739;SDS011;47645;45.288;12.038;2023-06-14T04:04:35;8.4;;;5.9;;
61739;SDS011;47645;45.288;12.038;2023-06-14T04:14:36;8.6;;;5.6;;
61739;SDS011;47645;45.288;12.038;2023-06-14T04:24:37;7.0;;;5.6;;
61739;SDS011;47645;45.288;12.038;2023-06-14T04:34:40;8.8;;;6.4;;
61739;SDS011;47645;45.288;12.038;2023-06-14T04:44:40;9.4;;;5.9;;
61739;SDS011;47645;45.288;12.038;2023-06-14T04:54:43;8.3;;;6.0;;
61739;SDS011;47645;45.288;12.038;2023-06-14T05:04:42;7.8;;;5.6;;
61739;SDS011;47645;45.288;12.038;2023-06-14T05:14:43;7.8;;;5.0;;
61739;SDS011;47645;45.288;12.038;2023-06-14T05:24:44;7.3;;;4.9;;
61739;SDS011;47645;45.288;12.038;2023-06-14T05:34:45;7.0;;;5.0;;
61739;SDS011;47645;45.288;12.038;2023-06-14T05:44:46;6.4;;;4.7;;
61739;SDS011;47645;45.288;12.038;2023-06-14T05:54:48;7.4;;;4.9;;
61739;SDS011;47645;45.288;12.038;2023-06-14T06:04:49;6.5;;;4.4;;
61739;SDS011;47645;45.288;12.038;2023-06-14T06:14:50;8.3;;;4.6;;
61739;SDS011;47645;45.288;12.038;2023-06-14T06:24:51;6.4;;;4.4;;
61739;SDS011;47645;45.288;12.038;2023-06-14T06:34:53;7.1;;;5.2;;
61739;SDS011;47645;45.288;12.038;2023-06-14T06:44:54;9.1;;;4.5;;
61739;SDS011;47645;45.288;12.038;2023-06-14T06:54:56;6.6;;;4.4;;
61739;SDS011;47645;45.288;12.038;2023-06-14T07:04:57;6.4;;;4.2;;
61739;SDS011;47645;45.288;12.038;2023-06-14T07:14:58;7.0;;;4.7;;
61739;SDS011;47645;45.288;12.038;2023-06-14T07:25:00;8.8;;;4.9;;
61739;SDS011;47645;45.288;12.038;2023-06-14T07:35:01;7.4;;;4.3;;
61739;SDS011;47645;45.288;12.038;2023-06-14T07:45:03;9.9;;;4.6;;
61739;SDS011;47645;45.288;12.038;2023-06-14T07:55:04;6.9;;;4.5;;
61739;SDS011;47645;45.288;12.038;2023-06-14T08:00:07;9.0;;;4.7;;
61739;SDS011;47645;45.288;12.038;2023-06-14T08:10:07;6.3;;;4.3;;
61739;SDS011;47645;45.288;12.038;2023-06-14T08:20:08;5.5;;;3.4;;
61739;SDS011;47645;45.288;12.038;2023-06-14T08:30:09;8.1;;;3.7;;
61739;SDS011;47645;45.288;12.038;2023-06-14T08:40:16;7.7;;;4.5;;
61739;SDS011;47645;45.288;12.038;2023-06-14T08:50:12;7.2;;;3.8;;
61739;SDS011;47645;45.288;12.038;2023-06-14T09:00:14;5.9;;;3.0;;
61739;SDS011;47645;45.288;12.038;2023-06-14T09:10:15;5.4;;;2.9;;
61739;SDS011;47645;45.288;12.038;2023-06-14T09:20:18;7.9;;;2.8;;
61739;SDS011;47645;45.288;12.038;2023-06-14T09:30:19;6.8;;;3.4;;
61739;SDS011;47645;45.288;12.038;2023-06-14T09:40:20;6.4;;;3.2;;
61739;SDS011;47645;45.288;12.038;2023-06-14T09:50:22;5.4;;;2.9;;
61739;SDS011;47645;45.288;12.038;2023-06-14T10:00:23;3.4;;;2.4;;
61739;SDS011;47645;45.288;12.038;2023-06-14T10:10:25;4.8;;;2.8;;
61739;SDS011;47645;45.288;12.038;2023-06-14T10:20:27;4.1;;;2.8;;
61739;SDS011;47645;45.288;12.038;2023-06-14T10:30:28;5.6;;;3.0;;
61739;SDS011;47645;45.288;12.038;2023-06-14T10:40:30;3.4;;;2.4;;
61739;SDS011;47645;45.288;12.038;2023-06-14T10:50:33;4.5;;;2.7;;
61739;SDS011;47645;45.288;12.038;2023-06-14T11:00:35;6.8;;;2.7;;
61739;SDS011;47645;45.288;12.038;2023-06-14T11:10:36;5.7;;;2.7;;
61739;SDS011;47645;45.288;12.038;2023-06-14T11:20:37;4.0;;;2.4;;
61739;SDS011;47645;45.288;12.038;2023-06-14T11:30:41;4.2;;;2.4;;
61739;SDS011;47645;45.288;12.038;2023-06-14T11:40:41;6.6;;;2.6;;
61739;SDS011;47645;45.288;12.038;2023-06-14T11:50:42;3.9;;;2.3;;
61739;SDS011;47645;45.288;12.038;2023-06-14T12:00:45;4.4;;;2.5;;
61739;SDS011;47645;45.288;12.038;2023-06-14T12:10:51;4.4;;;2.2;;
61739;SDS011;47645;45.288;12.038;2023-06-14T12:20:50;3.6;;;2.0;;
61739;SDS011;47645;45.288;12.038;2023-06-14T12:30:52;3.4;;;2.2;;
61739;SDS011;47645;45.288;12.038;2023-06-14T12:40:53;3.8;;;2.0;;
61739;SDS011;47645;45.288;12.038;2023-06-14T12:50:54;5.3;;;2.0;;
61739;SDS011;47645;45.288;12.038;2023-06-14T13:00:57;4.9;;;2.2;;
61739;SDS011;47645;45.288;12.038;2023-06-14T13:10:59;3.4;;;2.0;;
61739;SDS011;47645;45.288;12.038;2023-06-14T13:21:01;2.9;;;2.0;;
61739;SDS011;47645;45.288;12.038;2023-06-14T13:31:03;5.0;;;2.0;;
61739;SDS011;47645;45.288;12.038;2023-06-14T13:41:05;3.4;;;2.0;;
61739;SDS011;47645;45.288;12.038;2023-06-14T13:51:07;5.9;;;2.5;;
61739;SDS011;47645;45.288;12.038;2023-06-14T14:01:09;3.0;;;1.8;;
61739;SDS011;47645;45.288;12.038;2023-06-14T14:11:11;2.9;;;1.9;;
61739;SDS011;47645;45.288;12.038;2023-06-14T14:21:13;3.9;;;1.8;;
61739;SDS011;47645;45.288;12.038;2023-06-14T14:31:15;2.9;;;1.7;;
61739;SDS011;47645;45.288;12.038;2023-06-14T14:41:18;3.5;;;2.1;;
61739;SDS011;47645;45.288;12.038;2023-06-14T14:51:19;3.6;;;2.0;;
61739;SDS011;47645;45.288;12.038;2023-06-14T15:01:22;4.0;;;1.8;;
61739;SDS011;47645;45.288;12.038;2023-06-14T15:11:23;4.2;;;2.1;;
61739;SDS011;47645;45.288;12.038;2023-06-14T15:21:26;8.9;;;2.7;;
61739;SDS011;47645;45.288;12.038;2023-06-14T15:31:29;3.5;;;2.2;;
61739;SDS011;47645;45.288;12.038;2023-06-14T15:41:30;5.2;;;2.3;;
61739;SDS011;47645;45.288;12.038;2023-06-14T15:51:31;4.8;;;2.1;;
61739;SDS011;47645;45.288;12.038;2023-06-14T16:01:33;3.5;;;2.1;;
61739;SDS011;47645;45.288;12.038;2023-06-14T16:11:35;6.5;;;2.1;;
61739;SDS011;47645;45.288;12.038;2023-06-14T16:21:37;4.2;;;1.8;;
61739;SDS011;47645;45.288;12.038;2023-06-14T16:31:38;3.4;;;2.0;;
61739;SDS011;47645;45.288;12.038;2023-06-14T16:41:40;4.3;;;1.9;;
61739;SDS011;47645;45.288;12.038;2023-06-14T16:51:42;3.5;;;1.8;;
61739;SDS011;47645;45.288;12.038;2023-06-14T17:01:44;3.6;;;2.1;;
61739;SDS011;47645;45.288;12.038;2023-06-14T17:11:45;3.5;;;1.9;;
61739;SDS011;47645;45.288;12.038;2023-06-14T17:21:51;4.8;;;2.2;;
61739;SDS011;47645;45.288;12.038;2023-06-14T17:31:49;3.0;;;2.0;;
61739;SDS011;47645;45.288;12.038;2023-06-14T17:41:51;3.7;;;2.3;;
61739;SDS011;47645;45.288;12.038;2023-06-14T17:51:52;4.9;;;2.0;;
61739;SDS011;47645;45.288;12.038;2023-06-14T18:01:54;5.9;;;2.5;;
61739;SDS011;47645;45.288;12.038;2023-06-14T18:11:56;5.1;;;2.6;;
61739;SDS011;47645;45.288;12.038;2023-06-14T18:21:58;6.2;;;2.5;;
61739;SDS011;47645;45.288;12.038;2023-06-14T18:31:59;7.4;;;2.3;;
61739;SDS011;47645;45.288;12.038;2023-06-14T18:42:05;4.2;;;2.5;;
61739;SDS011;47645;45.288;12.038;2023-06-14T18:52:03;4.4;;;2.2;;
61739;SDS011;47645;45.288;12.038;2023-06-14T19:02:05;4.0;;;2.4;;
61739;SDS011;47645;45.288;12.038;2023-06-14T19:12:06;3.7;;;2.3;;
61739;SDS011;47645;45.288;12.038;2023-06-14T19:22:08;3.3;;;2.4;;
61739;SDS011;47645;45.288;12.038;2023-06-14T19:32:09;4.8;;;2.1;;
61739;SDS011;47645;45.288;12.038;2023-06-14T19:42:11;2.6;;;2.0;;
61739;SDS011;47645;45.288;12.038;2023-06-14T19:52:12;3.6;;;2.1;;
61739;SDS011;47645;45.288;12.038;2023-06-14T20:02:14;3.7;;;2.7;;
61739;SDS011;47645;45.288;12.038;2023-06-14T20:12:15;3.9;;;2.5;;
61739;SDS011;47645;45.288;12.038;2023-06-14T20:22:16;3.2;;;2.3;;
61739;SDS011;47645;45.288;12.038;2023-06-14T20:32:18;3.7;;;2.6;;
61739;SDS011;47645;45.288;12.038;2023-06-14T20:42:19;5.4;;;3.2;;
61739;SDS011;47645;45.288;12.038;2023-06-14T20:52:21;7.5;;;3.6;;
61739;SDS011;47645;45.288;12.038;2023-06-14T21:02:23;7.3;;;4.5;;
61739;SDS011;47645;45.288;12.038;2023-06-14T21:12:24;7.0;;;4.0;;
61739;SDS011;47645;45.288;12.038;2023-06-14T21:22:26;9.4;;;3.9;;
61739;SDS011;47645;45.288;12.038;2023-06-14T21:32:27;6.6;;;3.5;;
61739;SDS011;47645;45.288;12.038;2023-06-14T21:42:29;6.8;;;3.5;;
61739;SDS011;47645;45.288;12.038;2023-06-14T21:52:30;10.2;;;3.6;;
61739;SDS011;47645;45.288;12.038;2023-06-14T22:02:33;6.0;;;3.1;;
61739;SDS011;47645;45.288;12.038;2023-06-14T22:12:33;4.4;;;3.1;;
61739;SDS011;47645;45.288;12.038;2023-06-14T22:22:38;4.0;;;2.9;;
61739;SDS011;47645;45.288;12.038;2023-06-14T22:32:36;4.8;;;3.0;;
61739;SDS011;47645;45.288;12.038;2023-06-14T22:42:42;5.2;;;2.6;;
61739;SDS011;47645;45.288;12.038;2023-06-14T22:52:40;5.0;;;3.2;;
61739;SDS011;47645;45.288;12.038;2023-06-14T23:02:41;4.7;;;3.0;;
61739;SDS011;47645;45.288;12.038;2023-06-14T23:12:42;4.2;;;3.1;;
61739;SDS011;47645;45.288;12.038;2023-06-14T23:22:43;5.1;;;2.4;;
61739;SDS011;47645;45.288;12.038;2023-06-14T23:32:47;3.4;;;2.3;;
61739;SDS011;47645;45.288;12.038;2023-06-14T23:42:51;3.6;;;2.2;;
61739;SDS011;47645;45.288;12.038;2023-06-14T23:52:47;3.4;;;2.2;;
